Time;durP1;ratioP1;P1;durP2;ratioP2;P2;SDS_P1;SDS_P2;PMS_P1;PMS_P2;Temp;Humidity;BMP_temperature;BMP_pressure;BME280_temperature;BME280_humidity;BME280_pressure;Samples;Min_cycle;Max_cycle;Signal;HPM_P1;HPM_P2
2023/05/07 00:02:04;;;;;;;7.75;6.50;;;;;;;;;;5085510;28;20525;-63
2023/05/07 00:04:35;;;;;;;9.63;7.53;;;;;;;;;;5091885;28;20020;-63
2023/05/07 00:07:01;;;;;;;7.40;6.35;;;;;;;;;;5092093;28;20274;-63
2023/05/07 00:09:26;;;;;;;9.18;6.40;;;;;;;;;;5078633;28;20483;-63
2023/05/07 00:11:51;;;;;;;7.67;6.33;;;;;;;;;;5090862;28;20393;-63
2023/05/07 00:14:16;;;;;;;9.75;6.60;;;;;;;;;;5091405;28;20277;-63
2023/05/07 00:16:41;;;;;;;14.48;7.13;;;;;;;;;;5091943;28;20028;-63
2023/05/07 00:19:07;;;;;;;16.13;6.85;;;;;;;;;;5086386;28;20091;-63
2023/05/07 00:21:32;;;;;;;10.50;7.40;;;;;;;;;;5084805;28;20032;-63
2023/05/07 00:23:57;;;;;;;8.93;6.97;;;;;;;;;;5091426;28;20077;-63
2023/05/07 00:26:23;;;;;;;7.28;6.15;;;;;;;;;;5092015;28;20501;-63
2023/05/07 00:28:48;;;;;;;9.13;6.60;;;;;;;;;;5091037;28;20130;-63
2023/05/07 00:31:13;;;;;;;8.07;6.32;;;;;;;;;;5091644;28;20035;-63
2023/05/07 00:33:38;;;;;;;7.50;6.00;;;;;;;;;;5090973;28;20467;-63
2023/05/07 00:36:04;;;;;;;9.75;5.90;;;;;;;;;;5088332;28;20121;-63
2023/05/07 00:38:29;;;;;;;15.48;6.38;;;;;;;;;;5088007;28;20116;-63
2023/05/07 00:40:54;;;;;;;6.82;5.68;;;;;;;;;;5091409;28;20486;-63
2023/05/07 00:43:20;;;;;;;8.95;5.82;;;;;;;;;;5091546;28;20089;-63
2023/05/07 00:45:45;;;;;;;7.43;5.75;;;;;;;;;;5090798;28;20294;-63
2023/05/07 00:48:11;;;;;;;8.27;6.18;;;;;;;;;;5079546;28;20034;-63
2023/05/07 00:50:36;;;;;;;8.82;5.88;;;;;;;;;;5091675;28;20049;-63
2023/05/07 00:53:02;;;;;;;12.63;5.80;;;;;;;;;;5090217;28;20186;-63
2023/05/07 00:55:28;;;;;;;6.88;5.78;;;;;;;;;;5091201;28;20489;-63
2023/05/07 00:57:53;;;;;;;7.22;5.85;;;;;;;;;;5079856;28;20036;-63
2023/05/07 01:00:19;;;;;;;8.32;5.57;;;;;;;;;;5090177;28;20505;-63
2023/05/07 01:02:46;;;;;;;7.75;5.75;;;;;;;;;;5090769;28;20103;-63
2023/05/07 01:05:14;;;;;;;9.15;5.63;;;;;;;;;;5091253;28;20069;-63
2023/05/07 01:07:40;;;;;;;10.25;6.43;;;;;;;;;;5088915;28;20040;-63
2023/05/07 01:10:06;;;;;;;6.95;5.03;;;;;;;;;;5090886;28;20036;-63
2023/05/07 01:12:31;;;;;;;5.53;4.75;;;;;;;;;;5090350;28;20016;-63
2023/05/07 01:14:57;;;;;;;7.28;5.72;;;;;;;;;;5090969;28;20061;-63
2023/05/07 01:17:22;;;;;;;7.63;5.70;;;;;;;;;;5090996;28;20092;-63
2023/05/07 01:19:48;;;;;;;22.88;6.35;;;;;;;;;;5090747;28;20020;-63
2023/05/07 01:22:15;;;;;;;9.27;6.22;;;;;;;;;;5092008;28;20024;-64
2023/05/07 01:24:41;;;;;;;9.57;6.10;;;;;;;;;;5094639;28;20093;-63
2023/05/07 01:27:06;;;;;;;7.45;5.82;;;;;;;;;;5094640;28;20066;-63
2023/05/07 01:29:31;;;;;;;7.15;5.55;;;;;;;;;;5094114;28;20078;-63
2023/05/07 01:31:58;;;;;;;7.22;5.90;;;;;;;;;;5094299;28;20031;-63
2023/05/07 01:34:24;;;;;;;9.38;6.65;;;;;;;;;;5092707;28;20020;-63
2023/05/07 01:36:50;;;;;;;9.10;6.82;;;;;;;;;;5089547;28;20008;-63
2023/05/07 01:39:15;;;;;;;8.90;5.88;;;;;;;;;;5087068;28;20078;-64
2023/05/07 01:41:42;;;;;;;9.82;7.00;;;;;;;;;;5093583;28;20050;-63
2023/05/07 01:44:08;;;;;;;9.18;6.38;;;;;;;;;;5093338;28;20023;-63
2023/05/07 01:46:34;;;;;;;13.10;8.60;;;;;;;;;;5093450;28;20111;-63
2023/05/07 01:48:59;;;;;;;10.85;8.98;;;;;;;;;;5094553;28;20024;-63
2023/05/07 01:51:25;;;;;;;14.55;8.88;;;;;;;;;;5093846;28;20054;-63
2023/05/07 01:53:52;;;;;;;13.15;8.40;;;;;;;;;;5094270;28;20028;-63
2023/05/07 01:56:17;;;;;;;11.73;8.57;;;;;;;;;;5093536;28;20024;-63
2023/05/07 01:58:44;;;;;;;10.40;8.70;;;;;;;;;;5094070;28;20020;-63
2023/05/07 02:01:09;;;;;;;11.73;7.55;;;;;;;;;;5093669;28;20024;-63
2023/05/07 02:03:34;;;;;;;8.65;7.75;;;;;;;;;;5090250;28;20016;-63
2023/05/07 02:06:00;;;;;;;10.20;8.25;;;;;;;;;;5092270;28;20023;-63
2023/05/07 02:08:25;;;;;;;11.80;7.90;;;;;;;;;;5093879;28;20066;-63
2023/05/07 02:10:51;;;;;;;10.20;8.25;;;;;;;;;;5079978;28;20047;-63
2023/05/07 02:13:16;;;;;;;10.32;8.52;;;;;;;;;;5093234;28;20406;-63
2023/05/07 02:15:41;;;;;;;10.98;7.85;;;;;;;;;;5093317;28;20130;-63
2023/05/07 02:18:08;;;;;;;13.18;8.75;;;;;;;;;;5093141;28;20138;-63
2023/05/07 02:20:34;;;;;;;9.38;8.00;;;;;;;;;;5093080;28;20028;-63
2023/05/07 02:23:00;;;;;;;8.93;8.02;;;;;;;;;;5093525;28;20065;-63
2023/05/07 02:25:25;;;;;;;11.70;9.00;;;;;;;;;;5093219;28;20023;-63
2023/05/07 02:27:50;;;;;;;11.93;8.45;;;;;;;;;;5093893;28;20081;-63
2023/05/07 02:30:16;;;;;;;11.35;8.32;;;;;;;;;;5093310;28;20178;-63
2023/05/07 02:32:41;;;;;;;11.25;8.60;;;;;;;;;;5093950;28;20103;-63
2023/05/07 02:35:06;;;;;;;10.68;8.82;;;;;;;;;;5092214;28;20055;-63
2023/05/07 02:37:31;;;;;;;13.30;9.10;;;;;;;;;;5092855;28;20344;-63
2023/05/07 02:39:57;;;;;;;10.10;8.27;;;;;;;;;;5092322;28;20035;-63
2023/05/07 02:42:22;;;;;;;11.80;8.95;;;;;;;;;;5093021;28;20081;-63
2023/05/07 02:44:47;;;;;;;12.30;8.18;;;;;;;;;;5093033;28;20050;-63
2023/05/07 02:47:13;;;;;;;16.13;8.63;;;;;;;;;;5093157;28;20069;-63
2023/05/07 02:49:38;;;;;;;12.45;8.63;;;;;;;;;;5093840;28;20471;-63
2023/05/07 02:52:04;;;;;;;11.45;8.63;;;;;;;;;;5092224;28;20043;-63
2023/05/07 02:54:29;;;;;;;12.50;8.45;;;;;;;;;;5092904;28;20027;-63
2023/05/07 02:56:55;;;;;;;11.13;8.75;;;;;;;;;;5092683;28;20024;-63
2023/05/07 02:59:20;;;;;;;9.13;8.20;;;;;;;;;;5092793;28;20035;-63
2023/05/07 03:01:45;;;;;;;12.60;9.60;;;;;;;;;;5092036;28;20028;-63
2023/05/07 03:04:11;;;;;;;18.38;8.88;;;;;;;;;;5085418;28;20103;-63
2023/05/07 03:06:36;;;;;;;10.88;8.95;;;;;;;;;;5086538;28;20024;-63
2023/05/07 03:09:01;;;;;;;12.25;8.20;;;;;;;;;;5092936;28;20039;-63
2023/05/07 03:11:26;;;;;;;10.13;8.68;;;;;;;;;;5092727;28;20370;-63
2023/05/07 03:13:52;;;;;;;9.20;8.10;;;;;;;;;;5092696;28;20062;-63
2023/05/07 03:16:17;;;;;;;11.25;8.95;;;;;;;;;;5092149;28;20085;-63
2023/05/07 03:18:42;;;;;;;13.03;8.30;;;;;;;;;;5092944;28;20027;-63
2023/05/07 03:21:07;;;;;;;16.13;9.45;;;;;;;;;;5092272;28;20286;-63
2023/05/07 03:23:33;;;;;;;10.93;9.07;;;;;;;;;;5091887;28;20031;-63
2023/05/07 03:25:58;;;;;;;9.93;8.73;;;;;;;;;;5091936;28;20024;-63
2023/05/07 03:28:23;;;;;;;14.80;9.15;;;;;;;;;;5092466;28;20031;-63
2023/05/07 03:30:48;;;;;;;12.07;8.95;;;;;;;;;;5092705;28;20383;-63
2023/05/07 03:33:14;;;;;;;12.90;8.10;;;;;;;;;;5091912;28;20098;-63
2023/05/07 03:35:39;;;;;;;11.43;8.68;;;;;;;;;;5092689;28;20386;-63
2023/05/07 03:38:04;;;;;;;10.40;8.33;;;;;;;;;;5091442;28;20027;-63
2023/05/07 03:40:29;;;;;;;9.43;8.38;;;;;;;;;;5092637;28;20277;-63
2023/05/07 03:42:55;;;;;;;11.32;8.73;;;;;;;;;;5092564;28;20124;-63
2023/05/07 03:45:20;;;;;;;11.73;9.90;;;;;;;;;;5091342;28;20028;-63
2023/05/07 03:47:45;;;;;;;12.20;8.85;;;;;;;;;;5091870;28;20026;-63
2023/05/07 03:50:11;;;;;;;10.88;8.35;;;;;;;;;;5092005;28;20028;-63
2023/05/07 03:52:36;;;;;;;10.30;8.25;;;;;;;;;;5091412;28;20089;-63
2023/05/07 03:55:01;;;;;;;10.75;8.32;;;;;;;;;;5091076;28;20063;-63
2023/05/07 03:57:26;;;;;;;8.75;7.30;;;;;;;;;;5077957;28;20036;-63
2023/05/07 03:59:52;;;;;;;10.23;7.63;;;;;;;;;;5091857;28;20059;-63
2023/05/07 04:02:17;;;;;;;11.30;7.75;;;;;;;;;;5092242;28;20365;-63
2023/05/07 04:04:42;;;;;;;13.23;8.18;;;;;;;;;;5092000;28;20035;-63
2023/05/07 04:07:07;;;;;;;10.13;8.75;;;;;;;;;;5091641;28;20027;-63
2023/05/07 04:09:33;;;;;;;12.45;9.18;;;;;;;;;;5091410;28;20119;-63
2023/05/07 04:11:58;;;;;;;14.63;8.18;;;;;;;;;;5091204;28;20046;-62
2023/05/07 04:14:23;;;;;;;13.48;8.80;;;;;;;;;;5091432;28;20073;-63
2023/05/07 04:16:48;;;;;;;10.85;9.00;;;;;;;;;;5091468;28;20489;-62
2023/05/07 04:19:14;;;;;;;11.23;8.32;;;;;;;;;;5092110;28;20028;-63
2023/05/07 04:21:39;;;;;;;10.73;7.78;;;;;;;;;;5091040;28;20093;-63
2023/05/07 04:24:05;;;;;;;11.27;8.82;;;;;;;;;;5091607;28;20145;-63
2023/05/07 04:26:31;;;;;;;10.25;8.18;;;;;;;;;;5091568;28;20028;-63
2023/05/07 04:28:58;;;;;;;12.88;8.27;;;;;;;;;;5091794;28;20039;-63
2023/05/07 04:31:24;;;;;;;12.68;8.95;;;;;;;;;;5091208;28;20019;-63
2023/05/07 04:33:50;;;;;;;12.05;9.80;;;;;;;;;;5090608;28;20534;-63
2023/05/07 04:36:15;;;;;;;14.27;9.38;;;;;;;;;;5089062;28;20035;-63
2023/05/07 04:38:41;;;;;;;12.57;9.73;;;;;;;;;;5091591;28;20023;-63
2023/05/07 04:41:06;;;;;;;12.07;9.07;;;;;;;;;;5091299;28;20379;-63
2023/05/07 04:43:32;;;;;;;10.02;8.25;;;;;;;;;;5090580;28;20031;-63
2023/05/07 04:45:57;;;;;;;16.48;10.30;;;;;;;;;;5091267;28;20031;-62
2023/05/07 04:48:22;;;;;;;12.85;8.73;;;;;;;;;;5090872;28;20073;-63
2023/05/07 04:50:48;;;;;;;11.35;8.32;;;;;;;;;;5090137;28;20444;-63
2023/05/07 04:53:14;;;;;;;13.63;9.80;;;;;;;;;;5091067;28;20024;-63
2023/05/07 04:55:39;;;;;;;9.65;8.40;;;;;;;;;;5091152;28;20028;-62
2023/05/07 04:58:04;;;;;;;13.65;8.50;;;;;;;;;;5080845;28;20021;-62
2023/05/07 05:00:30;;;;;;;10.50;8.35;;;;;;;;;;5087606;28;20012;-62
2023/05/07 05:02:55;;;;;;;10.43;7.85;;;;;;;;;;5090890;28;20479;-62
2023/05/07 05:05:20;;;;;;;12.80;9.03;;;;;;;;;;5088583;28;20028;-63
2023/05/07 05:07:46;;;;;;;12.17;9.03;;;;;;;;;;5089470;28;20320;-63
2023/05/07 05:10:11;;;;;;;14.77;8.73;;;;;;;;;;5084497;28;20306;-61
2023/05/07 05:12:36;;;;;;;11.82;8.05;;;;;;;;;;5089854;28;20382;-61
2023/05/07 05:15:01;;;;;;;11.63;7.47;;;;;;;;;;5089811;28;20055;-63
2023/05/07 05:17:27;;;;;;;10.68;7.72;;;;;;;;;;5090700;28;20024;-62
2023/05/07 05:19:52;;;;;;;11.88;7.57;;;;;;;;;;5089472;28;20390;-63
2023/05/07 05:22:17;;;;;;;8.73;7.00;;;;;;;;;;5089427;28;20032;-62
2023/05/07 05:24:42;;;;;;;11.48;7.68;;;;;;;;;;5087166;28;20266;-63
2023/05/07 05:27:08;;;;;;;12.98;8.15;;;;;;;;;;5089568;28;20118;-63
2023/05/07 05:29:33;;;;;;;10.23;7.57;;;;;;;;;;5088001;28;20081;-63
2023/05/07 05:31:58;;;;;;;11.32;8.75;;;;;;;;;;5090733;28;20028;-63
2023/05/07 05:34:23;;;;;;;11.20;8.43;;;;;;;;;;5089811;28;20029;-62
2023/05/07 05:36:49;;;;;;;10.55;8.18;;;;;;;;;;5088898;28;20101;-63
2023/05/07 05:39:14;;;;;;;11.52;8.10;;;;;;;;;;5087141;28;20028;-63
2023/05/07 05:41:39;;;;;;;9.48;7.80;;;;;;;;;;5087696;28;20103;-62
2023/05/07 05:44:05;;;;;;;12.13;8.50;;;;;;;;;;5079917;28;20035;-63
2023/05/07 05:46:30;;;;;;;11.50;8.25;;;;;;;;;;5089663;28;20024;-63
2023/05/07 05:48:55;;;;;;;11.45;8.48;;;;;;;;;;5089674;28;20849;-63
2023/05/07 05:51:21;;;;;;;13.23;8.80;;;;;;;;;;5089647;28;20070;-63
2023/05/07 05:53:46;;;;;;;12.98;8.93;;;;;;;;;;5088831;28;20031;-63
2023/05/07 05:56:12;;;;;;;11.85;9.35;;;;;;;;;;5089546;28;20053;-63
2023/05/07 05:58:37;;;;;;;10.15;9.15;;;;;;;;;;5090273;28;20382;-63
2023/05/07 06:01:02;;;;;;;12.57;9.30;;;;;;;;;;5086085;28;20067;-63
2023/05/07 06:03:28;;;;;;;10.88;9.25;;;;;;;;;;5089518;28;20576;-63
2023/05/07 06:05:53;;;;;;;12.73;9.75;;;;;;;;;;5090110;28;20024;-63
2023/05/07 06:08:18;;;;;;;14.27;9.70;;;;;;;;;;5086346;28;20031;-63
2023/05/07 06:10:44;;;;;;;12.90;8.95;;;;;;;;;;5078933;28;20035;-64
2023/05/07 06:13:09;;;;;;;9.60;7.88;;;;;;;;;;5089792;28;20553;-63
2023/05/07 06:15:35;;;;;;;22.40;8.25;;;;;;;;;;5090977;28;20031;-63
2023/05/07 06:18:00;;;;;;;10.85;7.65;;;;;;;;;;5086007;28;20028;-63
2023/05/07 06:20:25;;;;;;;8.63;7.37;;;;;;;;;;5092495;28;20382;-63
2023/05/07 06:22:50;;;;;;;10.93;8.05;;;;;;;;;;5091303;28;20266;-63
2023/05/07 06:25:16;;;;;;;7.40;6.07;;;;;;;;;;5090618;28;20462;-63
2023/05/07 06:27:41;;;;;;;9.88;6.72;;;;;;;;;;5093308;28;20054;-63
2023/05/07 06:30:07;;;;;;;8.93;5.63;;;;;;;;;;5090009;28;20099;-63
2023/05/07 06:32:32;;;;;;;9.20;5.78;;;;;;;;;;5092251;28;20028;-63
2023/05/07 06:34:57;;;;;;;9.45;5.82;;;;;;;;;;5093136;28;20024;-63
2023/05/07 06:37:22;;;;;;;7.13;5.22;;;;;;;;;;5093629;28;20028;-63
2023/05/07 06:39:48;;;;;;;8.60;4.53;;;;;;;;;;5092836;28;20016;-63
2023/05/07 06:42:13;;;;;;;7.53;4.75;;;;;;;;;;5092885;28;20446;-63
2023/05/07 06:44:38;;;;;;;6.72;4.28;;;;;;;;;;5093349;28;20016;-63
2023/05/07 06:47:05;;;;;;;6.13;4.38;;;;;;;;;;5090736;28;20025;-63
2023/05/07 06:49:31;;;;;;;5.68;4.10;;;;;;;;;;5091903;28;20437;-63
2023/05/07 06:51:56;;;;;;;11.20;4.53;;;;;;;;;;5092883;28;20027;-63
2023/05/07 06:54:22;;;;;;;5.43;4.13;;;;;;;;;;5091540;28;20488;-63
2023/05/07 06:56:47;;;;;;;6.13;4.18;;;;;;;;;;5092897;28;20509;-63
2023/05/07 06:59:12;;;;;;;6.97;4.37;;;;;;;;;;5092007;28;20028;-63
2023/05/07 07:01:37;;;;;;;11.48;4.85;;;;;;;;;;5089641;28;20361;-62
2023/05/07 07:04:03;;;;;;;8.18;4.53;;;;;;;;;;5091500;28;20020;-62
2023/05/07 07:06:29;;;;;;;5.88;4.20;;;;;;;;;;5079834;28;20039;-63
2023/05/07 07:08:54;;;;;;;7.13;4.75;;;;;;;;;;5044469;28;20354;-62
2023/05/07 07:11:20;;;;;;;5.65;3.70;;;;;;;;;;5043105;28;20570;-62
2023/05/07 07:13:45;;;;;;;5.85;4.20;;;;;;;;;;5046738;28;20389;-63
2023/05/07 07:16:11;;;;;;;5.70;3.30;;;;;;;;;;5047323;28;20020;-62
2023/05/07 07:18:36;;;;;;;7.70;4.30;;;;;;;;;;5044482;28;20078;-62
2023/05/07 07:21:02;;;;;;;6.47;3.03;;;;;;;;;;5041906;28;20031;-63
2023/05/07 07:23:27;;;;;;;7.25;3.72;;;;;;;;;;5044962;28;20098;-63
2023/05/07 07:25:53;;;;;;;5.88;3.95;;;;;;;;;;5046867;28;20970;-63
2023/05/07 07:28:20;;;;;;;7.93;4.95;;;;;;;;;;5037385;28;20024;-63
2023/05/07 07:30:46;;;;;;;7.82;4.07;;;;;;;;;;5045343;28;20078;-62
2023/05/07 07:33:11;;;;;;;8.50;4.75;;;;;;;;;;5042168;28;20863;-62
2023/05/07 07:35:36;;;;;;;5.70;4.28;;;;;;;;;;5045337;28;20030;-63
2023/05/07 07:38:02;;;;;;;5.88;4.07;;;;;;;;;;5050819;28;20114;-63
2023/05/07 07:40:27;;;;;;;6.25;4.22;;;;;;;;;;5091994;28;20351;-62
2023/05/07 07:42:53;;;;;;;7.60;4.43;;;;;;;;;;5092211;28;20055;-62
2023/05/07 07:45:18;;;;;;;6.25;3.67;;;;;;;;;;5091957;28;20104;-62
2023/05/07 07:47:43;;;;;;;4.72;3.50;;;;;;;;;;5091903;28;20031;-62
2023/05/07 07:50:09;;;;;;;6.22;3.72;;;;;;;;;;5092231;28;20039;-62
2023/05/07 07:52:34;;;;;;;5.57;3.53;;;;;;;;;;5091818;28;20046;-63
2023/05/07 07:55:00;;;;;;;6.15;2.83;;;;;;;;;;5092313;28;20020;-64
2023/05/07 07:57:25;;;;;;;10.63;3.42;;;;;;;;;;5087628;28;20020;-63
2023/05/07 07:59:50;;;;;;;11.80;2.80;;;;;;;;;;5046070;28;20051;-62
2023/05/07 08:02:16;;;;;;;3.95;2.65;;;;;;;;;;5045731;28;20081;-63
2023/05/07 08:04:43;;;;;;;5.00;2.80;;;;;;;;;;5032227;28;21358;-62
2023/05/07 08:07:08;;;;;;;5.70;2.53;;;;;;;;;;5040291;28;20025;-62
2023/05/07 08:09:34;;;;;;;4.57;2.83;;;;;;;;;;5030926;28;20792;-62
2023/05/07 08:11:59;;;;;;;4.25;2.60;;;;;;;;;;5068866;28;20390;-62
2023/05/07 08:14:24;;;;;;;5.45;2.15;;;;;;;;;;5073787;28;20020;-62
2023/05/07 08:16:49;;;;;;;3.60;2.28;;;;;;;;;;5056562;28;20056;-62
2023/05/07 08:19:15;;;;;;;5.13;2.33;;;;;;;;;;5089043;28;20026;-62
2023/05/07 08:22:05;;;;;;;9.30;2.65;;;;;;;;;;5091345;28;20040;-62
2023/05/07 08:24:55;;;;;;;6.28;2.30;;;;;;;;;;5091426;28;20020;-62
2023/05/07 08:27:20;;;;;;;4.25;2.05;;;;;;;;;;5080273;28;20032;-62
2023/05/07 08:29:47;;;;;;;3.10;2.00;;;;;;;;;;5091374;28;20035;-62
2023/05/07 08:32:12;;;;;;;7.47;2.63;;;;;;;;;;5090529;28;20036;-62
2023/05/07 08:34:37;;;;;;;5.33;2.00;;;;;;;;;;5091337;28;20039;-63
2023/05/07 08:37:03;;;;;;;3.50;2.20;;;;;;;;;;5091594;28;20281;-62
2023/05/07 08:39:28;;;;;;;3.45;2.10;;;;;;;;;;5090852;28;20017;-63
2023/05/07 08:41:55;;;;;;;4.90;2.53;;;;;;;;;;5091541;28;20413;-63
2023/05/07 08:44:22;;;;;;;3.53;1.90;;;;;;;;;;5072875;28;20286;-62
2023/05/07 08:46:49;;;;;;;6.80;2.50;;;;;;;;;;5091444;28;20526;-62
2023/05/07 08:49:15;;;;;;;5.70;1.98;;;;;;;;;;5091409;28;20024;-62
2023/05/07 08:51:41;;;;;;;4.55;2.35;;;;;;;;;;5091546;28;20032;-62
2023/05/07 08:54:07;;;;;;;3.70;2.35;;;;;;;;;;5091135;28;20069;-63
2023/05/07 08:56:32;;;;;;;4.05;2.42;;;;;;;;;;5089834;28;20030;-62
2023/05/07 08:58:58;;;;;;;4.70;1.92;;;;;;;;;;5088591;28;20028;-64
2023/05/07 09:01:24;;;;;;;7.50;2.35;;;;;;;;;;5051796;28;20048;-62
2023/05/07 09:03:49;;;;;;;4.53;2.63;;;;;;;;;;5048214;28;20170;-63
2023/05/07 09:06:15;;;;;;;4.15;2.20;;;;;;;;;;5043207;28;20903;-61
2023/05/07 09:08:40;;;;;;;4.97;1.75;;;;;;;;;;5045167;28;20240;-62
2023/05/07 09:11:05;;;;;;;3.33;1.98;;;;;;;;;;5044955;28;20028;-62
2023/05/07 09:13:31;;;;;;;3.33;1.70;;;;;;;;;;5044664;28;20055;-62
2023/05/07 09:15:56;;;;;;;7.00;2.85;;;;;;;;;;5081784;28;20043;-62
2023/05/07 09:18:23;;;;;;;5.45;2.42;;;;;;;;;;5090539;28;20464;-62
2023/05/07 09:20:48;;;;;;;6.22;3.00;;;;;;;;;;5090526;28;20028;-62
2023/05/07 09:23:14;;;;;;;7.45;2.65;;;;;;;;;;5090959;28;20364;-63
2023/05/07 09:25:39;;;;;;;5.50;2.15;;;;;;;;;;5090665;28;20016;-63
2023/05/07 09:28:09;;;;;;;4.32;2.13;;;;;;;;;;5077200;28;20024;-64
2023/05/07 09:30:35;;;;;;;3.60;1.80;;;;;;;;;;5090921;28;20036;-64
2023/05/07 09:33:01;;;;;;;5.32;2.38;;;;;;;;;;5063766;28;20458;-63
2023/05/07 09:35:27;;;;;;;4.88;2.33;;;;;;;;;;5031106;28;20021;-64
2023/05/07 09:37:55;;;;;;;4.75;2.35;;;;;;;;;;5050474;28;20999;-63
2023/05/07 09:40:25;;;;;;;4.43;1.90;;;;;;;;;;5055570;28;20032;-63
2023/05/07 09:42:51;;;;;;;5.65;2.15;;;;;;;;;;5090894;28;20012;-64
2023/05/07 09:45:21;;;;;;;3.83;1.95;;;;;;;;;;5093224;28;20031;-63
2023/05/07 09:47:48;;;;;;;5.20;2.28;;;;;;;;;;5093736;28;20514;-63
2023/05/07 09:50:15;;;;;;;5.85;2.33;;;;;;;;;;5091256;28;20066;-63
2023/05/07 09:52:40;;;;;;;6.50;2.55;;;;;;;;;;5093234;28;20020;-64
2023/05/07 09:55:06;;;;;;;3.78;2.20;;;;;;;;;;5094503;28;20028;-63
2023/05/07 09:57:32;;;;;;;6.32;3.25;;;;;;;;;;5093612;28;20347;-65
2023/05/07 09:59:58;;;;;;;4.57;2.67;;;;;;;;;;5093273;28;20470;-64
2023/05/07 10:02:23;;;;;;;4.72;2.72;;;;;;;;;;5091413;28;20106;-65
2023/05/07 10:04:49;;;;;;;6.25;2.67;;;;;;;;;;5093098;28;20450;-65
2023/05/07 10:07:14;;;;;;;4.45;2.60;;;;;;;;;;5093164;28;20024;-64
2023/05/07 10:09:42;;;;;;;4.53;2.47;;;;;;;;;;5093918;28;20133;-63
2023/05/07 10:12:07;;;;;;;5.10;3.15;;;;;;;;;;5058474;28;20048;-65
2023/05/07 10:14:35;;;;;;;5.80;2.80;;;;;;;;;;5048778;28;20040;-65
2023/05/07 10:17:02;;;;;;;5.82;3.47;;;;;;;;;;5049029;28;20141;-64
2023/05/07 10:19:28;;;;;;;4.75;2.80;;;;;;;;;;5047286;28;20217;-63
2023/05/07 10:21:58;;;;;;;4.28;2.83;;;;;;;;;;5048676;28;20982;-64
2023/05/07 10:24:28;;;;;;;5.13;2.67;;;;;;;;;;5047272;28;20089;-65
2023/05/07 10:26:55;;;;;;;4.07;2.28;;;;;;;;;;5046696;28;20198;-64
2023/05/07 10:29:35;;;;;;;4.68;2.67;;;;;;;;;;5042293;28;20024;-63
2023/05/07 10:32:06;;;;;;;4.20;2.85;;;;;;;;;;5042160;28;20085;-64
2023/05/07 10:34:36;;;;;;;5.03;2.50;;;;;;;;;;5047398;28;20024;-64
2023/05/07 10:37:02;;;;;;;10.40;2.80;;;;;;;;;;5043572;28;20870;-63
2023/05/07 10:39:27;;;;;;;4.68;2.60;;;;;;;;;;5048127;28;20020;-63
2023/05/07 10:41:52;;;;;;;7.77;2.80;;;;;;;;;;5035938;28;20028;-62
2023/05/07 10:44:28;;;;;;;5.40;2.70;;;;;;;;;;5039370;28;20281;-62
2023/05/07 10:47:12;;;;;;;7.95;2.80;;;;;;;;;;5047932;28;20139;-62
2023/05/07 10:49:43;;;;;;;21.38;5.68;;;;;;;;;;5043605;28;20020;-64
2023/05/07 10:52:16;;;;;;;20.83;8.27;;;;;;;;;;5045090;28;20023;-62
2023/05/07 10:54:41;;;;;;;19.98;7.50;;;;;;;;;;5047471;28;20050;-61
2023/05/07 10:57:25;;;;;;;10.70;6.45;;;;;;;;;;5046642;28;20107;-65
2023/05/07 10:59:51;;;;;;;15.57;6.30;;;;;;;;;;5045864;28;20024;-62
2023/05/07 11:02:17;;;;;;;10.07;5.72;;;;;;;;;;5035842;28;21306;-64
2023/05/07 11:04:42;;;;;;;9.60;5.82;;;;;;;;;;5051305;28;20027;-61
2023/05/07 11:07:11;;;;;;;28.45;6.72;;;;;;;;;;5046074;28;20028;-60
2023/05/07 11:09:52;;;;;;;18.48;8.35;;;;;;;;;;5045446;28;20072;-60
2023/05/07 11:12:35;;;;;;;11.95;7.07;;;;;;;;;;5084382;28;20039;-61
2023/05/07 11:15:04;;;;;;;21.98;6.25;;;;;;;;;;5083878;28;20025;-61
2023/05/07 11:17:34;;;;;;;17.80;8.02;;;;;;;;;;5084476;28;20364;-59
2023/05/07 11:19:59;;;;;;;18.77;6.90;;;;;;;;;;5088119;28;20020;-61
2023/05/07 11:22:35;;;;;;;14.18;7.25;;;;;;;;;;5086944;28;20050;-63
2023/05/07 11:25:01;;;;;;;9.85;5.78;;;;;;;;;;5091014;28;20097;-61
2023/05/07 11:27:26;;;;;;;10.45;5.15;;;;;;;;;;5092046;28;20024;-61
2023/05/07 11:29:52;;;;;;;12.60;6.30;;;;;;;;;;5091929;28;20370;-62
2023/05/07 11:32:24;;;;;;;11.27;5.72;;;;;;;;;;5092822;28;20069;-61
2023/05/07 11:34:57;;;;;;;10.65;6.00;;;;;;;;;;5091094;28;20485;-62
2023/05/07 11:37:23;;;;;;;8.48;5.35;;;;;;;;;;5090153;28;20024;-64
2023/05/07 11:39:54;;;;;;;9.93;4.90;;;;;;;;;;5046000;28;20814;-62
2023/05/07 11:42:29;;;;;;;7.13;3.63;;;;;;;;;;5045449;28;20043;-62
2023/05/07 11:44:54;;;;;;;7.68;3.30;;;;;;;;;;5090300;28;20114;-61
2023/05/07 11:47:20;;;;;;;9.05;3.17;;;;;;;;;;5091804;28;20151;-62
2023/05/07 11:49:49;;;;;;;13.18;3.28;;;;;;;;;;5091356;28;20024;-63
2023/05/07 11:52:15;;;;;;;5.45;3.65;;;;;;;;;;5090837;28;20103;-62
2023/05/07 11:54:40;;;;;;;5.00;2.90;;;;;;;;;;5090981;28;20165;-63
2023/05/07 11:57:07;;;;;;;4.97;2.97;;;;;;;;;;5090826;28;20036;-62
2023/05/07 11:59:39;;;;;;;4.78;2.88;;;;;;;;;;5092013;28;20067;-62
2023/05/07 12:02:05;;;;;;;4.70;2.42;;;;;;;;;;5087423;28;20039;-64
2023/05/07 12:04:30;;;;;;;4.93;2.53;;;;;;;;;;5042220;28;20017;-63
2023/05/07 12:06:56;;;;;;;4.83;2.43;;;;;;;;;;5043796;28;20065;-63
2023/05/07 12:09:21;;;;;;;4.45;2.38;;;;;;;;;;5046182;28;20258;-63
2023/05/07 12:11:46;;;;;;;4.13;2.13;;;;;;;;;;5040582;28;20060;-63
2023/05/07 12:14:12;;;;;;;5.95;2.30;;;;;;;;;;5045664;28;20022;-63
2023/05/07 12:16:39;;;;;;;5.30;2.53;;;;;;;;;;5046103;28;20020;-62
2023/05/07 12:19:06;;;;;;;4.40;2.53;;;;;;;;;;5044704;28;20328;-64
2023/05/07 12:21:31;;;;;;;5.95;2.22;;;;;;;;;;5035039;28;20021;-63
2023/05/07 12:23:56;;;;;;;3.90;1.70;;;;;;;;;;5091312;28;20339;-63
2023/05/07 12:26:22;;;;;;;4.00;2.10;;;;;;;;;;5091580;28;20571;-63
2023/05/07 12:28:47;;;;;;;4.65;2.28;;;;;;;;;;5044837;28;20280;-61
2023/05/07 12:31:14;;;;;;;5.13;2.47;;;;;;;;;;5045026;28;20125;-60
2023/05/07 12:33:39;;;;;;;4.45;2.63;;;;;;;;;;5049376;28;20086;-63
2023/05/07 12:36:06;;;;;;;3.30;1.90;;;;;;;;;;5043201;28;20034;-63
2023/05/07 12:38:36;;;;;;;5.03;1.67;;;;;;;;;;5038480;28;20983;-64
2023/05/07 12:41:01;;;;;;;4.75;1.98;;;;;;;;;;5078888;28;20032;-64
2023/05/07 12:43:28;;;;;;;4.70;1.60;;;;;;;;;;5090420;28;20016;-63
2023/05/07 12:45:54;;;;;;;3.25;1.33;;;;;;;;;;5088553;28;20032;-64
2023/05/07 12:48:20;;;;;;;5.55;1.77;;;;;;;;;;5090728;28;20012;-64
2023/05/07 12:50:45;;;;;;;4.45;1.38;;;;;;;;;;5089930;28;20039;-65
2023/05/07 12:53:12;;;;;;;3.05;1.30;;;;;;;;;;5090231;28;20102;-63
2023/05/07 12:55:44;;;;;;;4.25;1.60;;;;;;;;;;5089820;28;20385;-62
2023/05/07 12:58:14;;;;;;;6.53;1.75;;;;;;;;;;5089956;28;20440;-67
2023/05/07 13:00:39;;;;;;;3.47;1.35;;;;;;;;;;5091297;28;20123;-63
2023/05/07 13:03:05;;;;;;;2.80;1.48;;;;;;;;;;5088163;28;20437;-62
2023/05/07 13:05:31;;;;;;;4.53;1.35;;;;;;;;;;5090462;28;20790;-63
2023/05/07 13:07:56;;;;;;;3.45;1.58;;;;;;;;;;5090199;28;20024;-65
2023/05/07 13:10:22;;;;;;;8.27;1.63;;;;;;;;;;5089791;28;20502;-62
2023/05/07 13:12:48;;;;;;;3.28;1.48;;;;;;;;;;5086926;28;20088;-62
2023/05/07 13:15:13;;;;;;;3.70;1.50;;;;;;;;;;5090664;28;20768;-62
2023/05/07 13:17:38;;;;;;;4.68;1.77;;;;;;;;;;5085984;28;20294;-62
2023/05/07 13:20:05;;;;;;;4.63;1.87;;;;;;;;;;5094759;28;20074;-62
2023/05/07 13:22:30;;;;;;;4.20;1.83;;;;;;;;;;5095494;28;20278;-62
2023/05/07 13:24:55;;;;;;;7.47;2.53;;;;;;;;;;5087140;28;20407;-62
2023/05/07 13:27:21;;;;;;;8.65;2.50;;;;;;;;;;5095035;28;20039;-62
2023/05/07 13:29:46;;;;;;;4.15;1.98;;;;;;;;;;5093838;28;20390;-62
2023/05/07 13:32:11;;;;;;;4.77;2.87;;;;;;;;;;5093930;28;20486;-62
2023/05/07 13:34:36;;;;;;;6.47;2.77;;;;;;;;;;5093276;28;20290;-62
2023/05/07 13:37:02;;;;;;;3.53;2.08;;;;;;;;;;5093813;28;20266;-62
2023/05/07 13:39:27;;;;;;;5.55;2.05;;;;;;;;;;5092814;28;20378;-62
2023/05/07 13:41:52;;;;;;;4.82;2.60;;;;;;;;;;5093615;28;20032;-62
2023/05/07 13:44:17;;;;;;;3.47;1.90;;;;;;;;;;5088768;28;20023;-62
2023/05/07 13:46:43;;;;;;;5.90;2.40;;;;;;;;;;5091944;28;20768;-62
2023/05/07 13:49:10;;;;;;;7.20;2.67;;;;;;;;;;5089549;28;20749;-61
2023/05/07 13:51:36;;;;;;;5.43;2.72;;;;;;;;;;5093953;28;20032;-61
2023/05/07 13:54:01;;;;;;;5.07;2.30;;;;;;;;;;5093311;28;20386;-61
2023/05/07 13:56:28;;;;;;;5.73;3.17;;;;;;;;;;5092412;28;20031;-61
2023/05/07 13:58:53;;;;;;;4.32;2.28;;;;;;;;;;5093769;28;20320;-61
2023/05/07 14:01:18;;;;;;;11.95;3.13;;;;;;;;;;5093122;28;20052;-62
2023/05/07 14:03:43;;;;;;;5.47;3.00;;;;;;;;;;5093052;28;20016;-61
2023/05/07 14:06:09;;;;;;;6.95;2.67;;;;;;;;;;5093186;28;20712;-62
2023/05/07 14:08:34;;;;;;;7.53;3.30;;;;;;;;;;5085875;28;20008;-62
2023/05/07 14:10:59;;;;;;;5.13;2.57;;;;;;;;;;5094023;28;20047;-62
2023/05/07 14:13:25;;;;;;;5.85;2.75;;;;;;;;;;5093296;28;20266;-62
2023/05/07 14:15:50;;;;;;;5.07;2.83;;;;;;;;;;5093296;28;20067;-62
2023/05/07 14:18:16;;;;;;;8.95;3.40;;;;;;;;;;5093882;28;20032;-62
2023/05/07 14:20:43;;;;;;;8.43;3.75;;;;;;;;;;5086093;28;20162;-61
2023/05/07 14:23:08;;;;;;;6.97;3.13;;;;;;;;;;5093535;28;20069;-61
2023/05/07 14:25:33;;;;;;;8.73;3.00;;;;;;;;;;5092769;28;20024;-61
2023/05/07 14:27:58;;;;;;;4.53;2.78;;;;;;;;;;5093504;28;20451;-61
2023/05/07 14:30:24;;;;;;;5.53;2.97;;;;;;;;;;5092091;28;20024;-61
2023/05/07 14:32:49;;;;;;;5.43;3.55;;;;;;;;;;5092665;28;20274;-61